createdAt,value
2022-11-05T00:02:34.526Z,20.80
2022-11-05T00:05:20.164Z,20.17
2022-11-05T00:08:07.281Z,17.03
2022-11-05T00:10:38.669Z,18.17
2022-11-05T00:13:25.775Z,22.30
2022-11-05T00:16:11.753Z,24.03
2022-11-05T00:18:40.021Z,25.03
2022-11-05T00:21:30.057Z,21.10
2022-11-05T00:24:19.219Z,16.83
2022-11-05T00:26:51.438Z,18.30
2022-11-05T00:29:19.676Z,18.43
2022-11-05T00:31:47.892Z,14.70
2022-11-05T00:34:16.113Z,21.13
2022-11-05T00:36:44.336Z,14.10
2022-11-05T00:39:12.554Z,23.73
2022-11-05T00:41:40.784Z,15.80
2022-11-05T00:44:30.371Z,18.87
2022-11-05T00:47:12.504Z,15.97
2022-11-05T00:49:40.970Z,19.73
2022-11-05T00:52:23.047Z,19.07
2022-11-05T00:54:51.274Z,19.57
2022-11-05T00:57:19.478Z,17.93
2022-11-05T00:59:49.172Z,15.93
2022-11-05T01:02:17.506Z,14.60
2022-11-05T01:04:45.831Z,14.60
2022-11-05T01:07:14.041Z,13.23
2022-11-05T01:09:42.204Z,13.97
2022-11-05T01:12:11.516Z,15.07
2022-11-05T01:14:39.719Z,14.63
2022-11-05T01:17:10.394Z,13.63
2022-11-05T01:19:39.368Z,15.57
2022-11-05T01:22:07.994Z,17.07
2022-11-05T01:24:36.188Z,17.20
2022-11-05T01:27:04.388Z,16.50
2022-11-05T01:29:32.636Z,16.40
2022-11-05T01:32:02.091Z,22.20
2022-11-05T01:34:31.958Z,24.03
2022-11-05T01:37:00.207Z,19.57
2022-11-05T01:39:28.411Z,21.77
2022-11-05T01:41:56.678Z,18.53
2022-11-05T01:44:43.343Z,22.97
2022-11-05T01:47:22.568Z,20.20
2022-11-05T01:49:52.435Z,18.80
2022-11-05T01:52:22.135Z,22.83
2022-11-05T01:54:50.369Z,26.30
2022-11-05T01:57:18.999Z,25.13
2022-11-05T01:59:49.303Z,22.90
2022-11-05T02:02:17.790Z,22.80
2022-11-05T02:04:48.536Z,21.13
2022-11-05T02:07:18.526Z,24.20
2022-11-05T02:09:50.027Z,21.60
2022-11-05T02:12:18.258Z,26.00
2022-11-05T02:14:47.718Z,28.30
2022-11-05T02:17:21.182Z,22.20
2022-11-05T02:20:06.272Z,19.70
2022-11-05T02:22:52.376Z,21.10
2022-11-05T02:25:29.754Z,20.30
2022-11-05T02:28:11.936Z,23.13
2022-11-05T02:30:48.212Z,23.70
2022-11-05T02:33:22.322Z,30.33
2022-11-05T02:36:02.168Z,26.37
2022-11-05T02:38:36.717Z,30.10
2022-11-05T02:41:08.320Z,28.63
2022-11-05T02:43:45.141Z,27.33
2022-11-05T02:46:20.547Z,33.67
2022-11-05T02:48:53.167Z,34.67
2022-11-05T02:51:27.040Z,33.97
2022-11-05T02:53:58.246Z,34.17
2022-11-05T02:56:28.608Z,33.30
2022-11-05T02:58:56.817Z,35.23
2022-11-05T03:01:27.519Z,35.40
2022-11-05T03:03:57.558Z,34.27
2022-11-05T03:06:37.925Z,28.57
2022-11-05T03:09:14.861Z,31.50
2022-11-05T03:11:46.848Z,28.67
2022-11-05T03:14:22.314Z,33.70
2022-11-05T03:16:55.882Z,36.43
2022-11-05T03:19:30.037Z,31.27
2022-11-05T03:21:59.942Z,30.87
2022-11-05T03:24:29.956Z,31.87
2022-11-05T03:27:00.474Z,42.10
2022-11-05T03:29:31.917Z,36.67
2022-11-05T03:32:03.103Z,42.40
2022-11-05T03:34:32.981Z,35.57
2022-11-05T03:37:02.752Z,33.47
2022-11-05T03:39:31.744Z,38.10
2022-11-05T03:42:00.792Z,29.20
2022-11-05T03:44:30.509Z,25.43
2022-11-05T03:47:01.140Z,36.37
2022-11-05T03:49:32.585Z,36.20
2022-11-05T03:52:02.147Z,36.73
2022-11-05T03:54:30.640Z,29.80
2022-11-05T03:57:04.341Z,36.33
2022-11-05T03:59:33.613Z,34.97
2022-11-05T04:02:04.448Z,38.30
2022-11-05T04:04:34.516Z,28.00
2022-11-05T04:07:20.395Z,35.93
2022-11-05T04:10:06.450Z,36.10
2022-11-05T04:12:52.627Z,32.00
2022-11-05T04:15:20.879Z,30.83
2022-11-05T04:17:48.121Z,27.80
2022-11-05T04:20:35.427Z,34.07
2022-11-05T04:23:21.925Z,31.33
2022-11-05T04:25:50.317Z,34.13
2022-11-05T04:28:18.727Z,32.87
2022-11-05T04:30:45.988Z,25.97
2022-11-05T04:33:15.310Z,30.40
2022-11-05T04:35:45.635Z,25.03
2022-11-05T04:38:14.867Z,29.63
2022-11-05T04:40:43.417Z,25.47
2022-11-05T04:43:15.056Z,25.73
2022-11-05T04:45:43.657Z,29.90
2022-11-05T04:48:12.259Z,25.27
2022-11-05T04:50:40.674Z,30.07
2022-11-05T04:53:10.636Z,26.10
2022-11-05T04:55:39.011Z,23.60
2022-11-05T04:58:07.280Z,26.40
2022-11-05T05:00:35.511Z,25.37
2022-11-05T05:03:03.794Z,31.13
2022-11-05T05:05:32.020Z,21.03
2022-11-05T05:08:02.881Z,23.63
2022-11-05T05:10:33.650Z,27.87
2022-11-05T05:13:01.859Z,24.93
2022-11-05T05:15:30.524Z,27.23
2022-11-05T05:17:59.655Z,29.07
2022-11-05T05:20:45.522Z,26.13
2022-11-05T05:23:13.873Z,24.13
2022-11-05T05:25:43.607Z,26.63
2022-11-05T05:28:11.787Z,21.33
2022-11-05T05:30:39.995Z,21.80
2022-11-05T05:33:09.607Z,22.40
2022-11-05T05:35:37.968Z,20.67
2022-11-05T05:38:06.202Z,26.67
2022-11-05T05:40:34.417Z,21.30
2022-11-05T05:43:04.002Z,19.70
2022-11-05T05:45:33.296Z,22.43
2022-11-05T05:48:01.499Z,23.67
2022-11-05T05:50:29.730Z,23.63
2022-11-05T05:52:58.688Z,25.90
2022-11-05T05:55:26.859Z,24.77
2022-11-05T05:57:55.837Z,24.23
2022-11-05T06:00:25.389Z,19.97
2022-11-05T06:02:53.643Z,22.50
2022-11-05T06:05:21.850Z,20.27
2022-11-05T06:07:56.420Z,22.33
2022-11-05T06:10:24.809Z,25.10
2022-11-05T06:12:53.066Z,21.67
2022-11-05T06:15:21.397Z,18.27
2022-11-05T06:17:50.944Z,23.30
2022-11-05T06:20:20.450Z,19.50
2022-11-05T06:22:55.509Z,17.30
2022-11-05T06:25:23.794Z,23.43
2022-11-05T06:27:52.010Z,20.90
2022-11-05T06:30:21.661Z,25.17
2022-11-05T06:32:51.615Z,25.70
2022-11-05T06:35:19.892Z,19.17
2022-11-05T06:37:48.061Z,23.70
2022-11-05T06:40:17.402Z,23.03
2022-11-05T06:42:45.588Z,23.20
2022-11-05T06:45:13.768Z,23.37
2022-11-05T06:47:42.110Z,24.53
2022-11-05T06:50:11.858Z,22.47
2022-11-05T06:52:41.483Z,19.10
2022-11-05T06:55:10.182Z,22.13
2022-11-05T06:57:39.135Z,22.93
2022-11-05T07:00:08.292Z,22.77
2022-11-05T07:02:44.035Z,25.57
2022-11-05T07:05:14.370Z,23.50
2022-11-05T07:07:43.282Z,24.40
2022-11-05T07:10:13.470Z,24.07
2022-11-05T07:12:41.702Z,19.70
2022-11-05T07:15:10.816Z,20.83
2022-11-05T07:17:39.131Z,24.63
2022-11-05T07:20:09.512Z,21.17
2022-11-05T07:22:39.176Z,28.50
2022-11-05T07:25:07.897Z,19.40
2022-11-05T07:27:39.651Z,17.67
2022-11-05T07:30:10.504Z,24.63
2022-11-05T07:32:39.527Z,23.57
2022-11-05T07:35:08.304Z,25.47
2022-11-05T07:37:45.774Z,27.03
2022-11-05T07:40:14.915Z,26.20
2022-11-05T07:42:44.357Z,22.27
2022-11-05T07:45:13.111Z,26.20
2022-11-05T07:47:41.574Z,23.60
2022-11-05T07:50:10.426Z,28.93
2022-11-05T07:52:38.822Z,25.47
2022-11-05T07:55:09.336Z,25.67
2022-11-05T07:57:42.708Z,28.83
2022-11-05T08:00:12.585Z,27.80
2022-11-05T08:02:40.991Z,32.07
2022-11-05T08:05:09.436Z,30.70
2022-11-05T08:07:37.951Z,33.17
2022-11-05T08:10:06.508Z,36.27
2022-11-05T08:12:36.091Z,32.80
2022-11-05T08:15:04.291Z,31.60
2022-11-05T08:17:32.495Z,28.70
2022-11-05T08:20:00.769Z,29.33
2022-11-05T08:22:29.009Z,32.47
2022-11-05T08:24:58.095Z,32.53
2022-11-05T08:27:28.591Z,31.40
2022-11-05T08:29:58.186Z,32.37
2022-11-05T08:32:26.415Z,33.77
2022-11-05T08:34:54.633Z,28.40
2022-11-05T08:37:23.853Z,29.20
2022-11-05T08:39:52.178Z,28.97
2022-11-05T08:42:20.399Z,31.80
2022-11-05T08:44:48.612Z,31.27
2022-11-05T08:47:18.167Z,29.67
2022-11-05T08:49:46.376Z,35.73
2022-11-05T08:52:14.883Z,29.40
2022-11-05T08:54:43.603Z,32.83
2022-11-05T08:57:12.026Z,29.60
2022-11-05T08:59:40.282Z,39.20
2022-11-05T09:02:08.708Z,34.23
2022-11-05T09:04:38.390Z,42.60
2022-11-05T09:07:06.614Z,33.43
2022-11-05T09:09:35.039Z,33.70
2022-11-05T09:12:12.239Z,33.67
2022-11-05T09:14:41.035Z,33.33
2022-11-05T09:17:14.793Z,32.80
2022-11-05T09:19:44.321Z,36.67
2022-11-05T09:22:13.423Z,42.70
2022-11-05T09:24:41.797Z,32.57
2022-11-05T09:27:11.905Z,40.13
2022-11-05T09:29:40.124Z,34.70
2022-11-05T09:32:08.393Z,38.63
2022-11-05T09:34:36.867Z,41.17
2022-11-05T09:37:06.506Z,39.60
2022-11-05T09:39:34.698Z,44.43
2022-11-05T09:42:04.220Z,44.87
2022-11-05T09:44:38.326Z,38.03
2022-11-05T09:47:08.291Z,45.13
2022-11-05T09:49:40.412Z,46.90
2022-11-05T09:52:13.828Z,47.83
2022-11-05T09:54:42.346Z,46.20
2022-11-05T09:57:14.856Z,38.30
2022-11-05T09:59:44.973Z,47.73
2022-11-05T10:02:14.731Z,47.83
2022-11-05T10:04:44.743Z,34.33
2022-11-05T10:07:16.408Z,38.90
2022-11-05T10:09:47.815Z,31.67
2022-11-05T10:12:18.976Z,32.93
2022-11-05T10:14:49.895Z,30.83
2022-11-05T10:17:24.593Z,38.17
2022-11-05T10:19:55.841Z,27.57
2022-11-05T10:22:27.698Z,24.40
2022-11-05T10:24:56.723Z,26.43
2022-11-05T10:27:25.694Z,21.00
2022-11-05T10:29:54.282Z,21.70
2022-11-05T10:32:27.200Z,14.82
2022-11-05T10:34:56.118Z,12.73
2022-11-05T10:37:26.204Z,14.60
2022-11-05T10:39:54.678Z,18.60
2022-11-05T10:42:34.011Z,13.07
2022-11-05T10:45:05.693Z,12.20
2022-11-05T10:47:42.958Z,14.73
2022-11-05T10:50:12.397Z,14.23
2022-11-05T10:52:48.871Z,11.83
2022-11-05T10:55:22.694Z,13.03
2022-11-05T10:57:50.973Z,14.23
2022-11-05T11:00:22.940Z,13.27
2022-11-05T11:02:52.048Z,14.07
2022-11-05T11:05:21.870Z,15.70
2022-11-05T11:08:02.505Z,13.83
2022-11-05T11:10:31.956Z,12.80
2022-11-05T11:13:00.329Z,12.50
2022-11-05T11:15:32.425Z,12.10
2022-11-05T11:18:00.680Z,10.40
2022-11-05T11:20:29.731Z,13.67
2022-11-05T11:23:02.448Z,12.70
2022-11-05T11:25:32.367Z,14.33
2022-11-05T11:28:04.075Z,8.83
2022-11-05T11:30:33.735Z,7.93
2022-11-05T11:33:11.109Z,13.90
2022-11-05T11:35:40.511Z,13.90
2022-11-05T11:38:15.849Z,9.90
2022-11-05T11:40:45.290Z,13.90
2022-11-05T11:43:20.859Z,9.27
2022-11-05T11:45:51.429Z,11.33
2022-11-05T11:48:20.852Z,7.43
2022-11-05T11:50:50.235Z,13.23
2022-11-05T11:53:34.402Z,10.20
2022-11-05T11:56:05.884Z,13.40
2022-11-05T11:58:39.304Z,8.27
2022-11-05T12:01:14.833Z,10.23
2022-11-05T12:03:46.387Z,8.07
2022-11-05T12:06:18.549Z,5.70
2022-11-05T12:08:59.314Z,9.43
2022-11-05T12:11:35.740Z,5.57
2022-11-05T12:14:06.277Z,11.33
2022-11-05T12:16:58.332Z,6.10
2022-11-05T12:19:31.425Z,6.53
2022-11-05T12:22:02.356Z,6.33
2022-11-05T12:24:39.089Z,5.40
2022-11-05T12:27:16.901Z,4.40
2022-11-05T12:29:50.908Z,5.67
2022-11-05T12:32:37.986Z,4.80
2022-11-05T12:35:11.331Z,5.27
2022-11-05T12:37:44.883Z,5.27
2022-11-05T12:40:31.112Z,6.43
2022-11-05T12:43:11.420Z,3.87
2022-11-05T12:45:47.163Z,4.93
2022-11-05T12:48:29.218Z,6.40
2022-11-05T12:51:03.421Z,5.50
2022-11-05T12:53:37.921Z,5.33
2022-11-05T12:56:08.254Z,6.70
2022-11-05T12:58:39.175Z,4.63
2022-11-05T13:01:09.489Z,18.73
2022-11-05T13:03:42.098Z,3.97
2022-11-05T13:06:12.146Z,4.47
2022-11-05T13:08:43.094Z,5.20
2022-11-05T13:11:18.264Z,4.10
2022-11-05T13:13:50.459Z,4.60
2022-11-05T13:16:21.483Z,5.27
2022-11-05T13:18:52.230Z,4.17
2022-11-05T13:21:23.286Z,4.80
2022-11-05T13:23:55.025Z,3.97
2022-11-05T13:26:32.058Z,5.77
2022-11-05T13:29:05.510Z,5.23
2022-11-05T13:31:34.945Z,5.97
2022-11-05T13:34:05.738Z,4.77
2022-11-05T13:36:53.080Z,9.70
2022-11-05T13:39:24.213Z,10.67
2022-11-05T13:42:00.051Z,4.87
2022-11-05T13:44:46.909Z,4.03
2022-11-05T13:47:36.179Z,6.23
2022-11-05T13:50:31.754Z,4.23
2022-11-05T13:53:25.623Z,3.80
2022-11-05T13:55:58.911Z,5.70
2022-11-05T13:58:45.057Z,4.00
2022-11-05T14:01:20.859Z,5.93
2022-11-05T14:03:50.126Z,3.43
2022-11-05T14:06:26.504Z,8.37
2022-11-05T14:08:58.308Z,4.47
2022-11-05T14:11:28.331Z,4.57
2022-11-05T14:13:58.794Z,5.50
2022-11-05T14:16:29.482Z,3.43
2022-11-05T14:19:19.784Z,3.50
2022-11-05T14:21:50.403Z,2.53
2022-11-05T14:24:37.891Z,4.00
2022-11-05T14:27:24.648Z,4.83
2022-11-05T14:29:52.879Z,3.63
2022-11-05T14:32:28.202Z,6.83
2022-11-05T14:34:58.561Z,5.27
2022-11-05T14:37:32.944Z,3.97
2022-11-05T14:40:21.311Z,5.50
2022-11-05T14:42:52.004Z,3.87
2022-11-05T14:45:25.165Z,4.57
2022-11-05T14:47:55.242Z,5.23
2022-11-05T14:50:27.323Z,8.80
2022-11-05T14:52:59.236Z,7.30
2022-11-05T14:55:31.299Z,4.57
2022-11-05T14:58:04.171Z,4.23
2022-11-05T15:00:46.615Z,4.13
2022-11-05T15:03:47.808Z,6.77
2022-11-05T15:06:23.808Z,4.20
2022-11-05T15:09:07.223Z,4.30
2022-11-05T15:11:38.927Z,5.43
2022-11-05T15:14:09.388Z,6.57
2022-11-05T15:16:39.807Z,5.13
2022-11-05T15:19:13.823Z,6.70
2022-11-05T15:21:42.288Z,4.47
2022-11-05T15:24:10.997Z,5.73
2022-11-05T15:26:43.623Z,4.90
2022-11-05T15:29:19.916Z,3.43
2022-11-05T15:31:48.315Z,7.80
2022-11-05T15:34:21.457Z,4.70
2022-11-05T15:36:51.372Z,7.17
2022-11-05T15:39:40.453Z,5.13
2022-11-05T15:42:14.450Z,6.50
2022-11-05T15:44:45.256Z,7.80
2022-11-05T15:47:18.526Z,5.17
2022-11-05T15:49:47.841Z,6.53
2022-11-05T15:52:16.948Z,6.87
2022-11-05T15:54:45.526Z,7.30
2022-11-05T15:57:21.985Z,4.83
2022-11-05T15:59:50.300Z,5.50
2022-11-05T16:02:30.242Z,7.13
2022-11-05T16:04:59.399Z,7.60
2022-11-05T16:07:28.198Z,10.50
2022-11-05T16:09:57.818Z,5.20
2022-11-05T16:12:32.164Z,5.50
2022-11-05T16:15:01.514Z,4.97
2022-11-05T16:17:32.035Z,4.03
2022-11-05T16:20:00.359Z,5.77
2022-11-05T16:22:45.926Z,5.00
2022-11-05T16:25:25.529Z,6.93
2022-11-05T16:27:55.122Z,6.30
2022-11-05T16:30:23.331Z,5.83
2022-11-05T16:32:51.814Z,5.30
2022-11-05T16:35:21.438Z,6.63
2022-11-05T16:37:52.387Z,5.27
2022-11-05T16:40:21.695Z,5.80
2022-11-05T16:42:51.445Z,6.43
2022-11-05T16:45:22.011Z,5.50
2022-11-05T16:47:51.596Z,5.77
2022-11-05T16:50:22.016Z,7.07
2022-11-05T16:52:50.289Z,5.30
2022-11-05T16:55:19.152Z,6.03
2022-11-05T16:57:48.506Z,7.70
2022-11-05T17:00:17.889Z,5.80
2022-11-05T17:02:47.740Z,4.83
2022-11-05T17:05:20.420Z,6.20
2022-11-05T17:07:48.879Z,16.17
2022-11-05T17:10:17.219Z,6.60
2022-11-05T17:12:46.478Z,8.23
2022-11-05T17:15:19.560Z,6.60
2022-11-05T17:17:49.363Z,7.90
2022-11-05T17:20:24.287Z,8.87
2022-11-05T17:22:52.643Z,9.43
2022-11-05T17:25:20.851Z,6.53
2022-11-05T17:27:49.058Z,10.50
2022-11-05T17:30:17.319Z,10.93
2022-11-05T17:32:47.063Z,5.60
2022-11-05T17:35:18.545Z,8.00
2022-11-05T17:37:46.772Z,10.10
2022-11-05T17:40:16.566Z,7.17
2022-11-05T17:42:44.819Z,9.50
2022-11-05T17:45:15.245Z,9.43
2022-11-05T17:47:44.565Z,9.73
2022-11-05T17:50:14.776Z,7.77
2022-11-05T17:52:44.716Z,14.03
2022-11-05T17:55:18.183Z,9.77
2022-11-05T17:57:47.669Z,10.70
2022-11-05T18:00:16.989Z,10.70
2022-11-05T18:02:46.089Z,7.23
2022-11-05T18:05:14.457Z,12.40
2022-11-05T18:07:44.236Z,13.20
2022-11-05T18:10:12.922Z,11.37
2022-11-05T18:12:41.468Z,10.43
2022-11-05T18:15:10.038Z,13.70
2022-11-05T18:17:38.340Z,9.50
2022-11-05T18:20:11.612Z,9.13
2022-11-05T18:22:43.884Z,10.17
2022-11-05T18:25:14.313Z,9.47
2022-11-05T18:27:42.824Z,9.63
2022-11-05T18:30:13.850Z,10.47
2022-11-05T18:32:42.040Z,7.63
2022-11-05T18:35:13.169Z,7.90
2022-11-05T18:37:41.588Z,9.67
2022-11-05T18:40:12.028Z,8.53
2022-11-05T18:42:40.693Z,9.53
2022-11-05T18:45:09.614Z,8.73
2022-11-05T18:47:38.911Z,9.27
2022-11-05T18:50:08.020Z,13.10
2022-11-05T18:52:36.523Z,7.10
2022-11-05T18:55:04.995Z,5.70
2022-11-05T18:57:35.887Z,9.40
2022-11-05T19:00:04.961Z,10.20
2022-11-05T19:02:33.366Z,6.67
2022-11-05T19:07:49.913Z,8.00
2022-11-05T19:10:19.401Z,9.40
2022-11-05T19:12:50.410Z,6.63
2022-11-05T19:15:18.856Z,8.70
2022-11-05T19:17:47.035Z,5.87
2022-11-05T19:20:15.462Z,7.40
2022-11-05T19:22:43.766Z,8.00
2022-11-05T19:25:12.017Z,10.80
2022-11-05T19:27:41.012Z,5.80
2022-11-05T19:30:11.245Z,7.40
2022-11-05T19:32:39.653Z,11.50
2022-11-05T19:35:08.022Z,8.63
2022-11-05T19:37:36.303Z,6.87
2022-11-05T19:40:04.542Z,7.27
2022-11-05T19:42:32.804Z,5.00
2022-11-05T19:45:22.897Z,6.90
2022-11-05T19:47:50.700Z,7.10
2022-11-05T19:50:18.879Z,5.43
2022-11-05T19:52:47.093Z,6.20
2022-11-05T19:55:15.321Z,6.70
2022-11-05T19:57:47.064Z,6.13
2022-11-05T20:00:15.813Z,7.13
2022-11-05T20:02:45.812Z,7.57
2022-11-05T20:05:15.904Z,8.67
2022-11-05T20:07:49.636Z,6.07
2022-11-05T20:10:20.712Z,9.63
2022-11-05T20:12:48.998Z,10.33
2022-11-05T20:15:19.055Z,8.07
2022-11-05T20:17:49.685Z,6.80
2022-11-05T20:20:19.702Z,10.10
2022-11-05T20:22:48.019Z,6.03
2022-11-05T20:25:16.333Z,8.90
2022-11-05T20:27:45.552Z,7.63
2022-11-05T20:30:14.304Z,8.10
2022-11-05T20:32:42.515Z,9.13
2022-11-05T20:35:11.290Z,5.87
2022-11-05T20:37:40.976Z,8.60
2022-11-05T20:40:09.701Z,6.60
2022-11-05T20:42:38.248Z,9.20
2022-11-05T20:45:09.900Z,8.03
2022-11-05T20:47:38.606Z,8.97
2022-11-05T20:50:07.479Z,7.40
2022-11-05T20:52:35.707Z,4.53
2022-11-05T20:55:09.284Z,5.93
2022-11-05T20:57:38.398Z,8.23
2022-11-05T21:00:08.217Z,8.23
2022-11-05T21:02:38.914Z,9.93
2022-11-05T21:05:08.333Z,8.00
2022-11-05T21:07:36.735Z,7.80
2022-11-05T21:10:07.444Z,4.53
2022-11-05T21:12:35.800Z,4.90
2022-11-05T21:15:04.126Z,9.90
2022-11-05T21:17:32.338Z,7.27
2022-11-05T21:20:01.703Z,10.93
2022-11-05T21:22:29.876Z,10.17
2022-11-05T21:24:58.290Z,8.23
2022-11-05T21:27:27.871Z,7.13
2022-11-05T21:29:57.238Z,7.13
2022-11-05T21:32:25.433Z,8.00
2022-11-05T21:34:54.752Z,4.47
2022-11-05T21:37:23.062Z,13.60
2022-11-05T21:39:51.503Z,7.27
2022-11-05T21:42:19.811Z,9.93
2022-11-05T21:44:49.724Z,9.17
2022-11-05T21:47:18.075Z,6.30
2022-11-05T21:49:46.389Z,7.90
2022-11-05T21:52:32.320Z,7.80
2022-11-05T21:55:18.451Z,7.23
2022-11-05T21:58:04.522Z,12.20
2022-11-05T22:00:34.085Z,7.67
2022-11-05T22:03:02.329Z,10.73
2022-11-05T22:05:30.713Z,7.37
2022-11-05T22:07:58.933Z,4.30
2022-11-05T22:10:27.320Z,10.00
2022-11-05T22:12:55.620Z,12.77
2022-11-05T22:15:23.826Z,10.20
2022-11-05T22:17:53.486Z,12.10
2022-11-05T22:20:23.646Z,5.23
2022-11-05T22:22:52.445Z,8.80
2022-11-05T22:25:20.735Z,7.00
2022-11-05T22:27:49.043Z,10.87
2022-11-05T22:30:17.393Z,6.90
2022-11-05T22:32:46.204Z,5.47
2022-11-05T22:35:15.877Z,7.23
2022-11-05T22:37:44.188Z,9.40
2022-11-05T22:40:12.898Z,12.40
2022-11-05T22:42:43.040Z,8.13
2022-11-05T22:45:11.883Z,5.50
2022-11-05T22:47:42.758Z,7.50
2022-11-05T22:50:11.417Z,10.83
2022-11-05T22:52:42.138Z,5.50
2022-11-05T22:55:10.809Z,7.70
2022-11-05T22:57:39.257Z,9.07
2022-11-05T23:00:15.523Z,5.53
2022-11-05T23:02:44.109Z,7.40
2022-11-05T23:05:12.436Z,8.70
2022-11-05T23:08:08.283Z,11.93
2022-11-05T23:10:54.363Z,13.30
2022-11-05T23:13:22.567Z,7.50
2022-11-05T23:16:08.544Z,6.70
2022-11-05T23:18:54.785Z,5.47
2022-11-05T23:21:40.535Z,5.93
2022-11-05T23:24:10.475Z,11.13
2022-11-05T23:26:52.113Z,4.93
2022-11-05T23:29:21.061Z,10.93
2022-11-05T23:32:08.265Z,4.20
2022-11-05T23:34:36.476Z,4.77
2022-11-05T23:37:22.675Z,6.03
2022-11-05T23:39:52.398Z,3.73
2022-11-05T23:42:43.769Z,4.90
2022-11-05T23:45:30.039Z,7.53
2022-11-05T23:48:16.697Z,5.63
2022-11-05T23:50:46.585Z,5.63
2022-11-05T23:53:14.832Z,6.07
2022-11-05T23:55:45.764Z,5.67
2022-11-05T23:58:14.145Z,7.30
